Time;durP1;ratioP1;P1;durP2;ratioP2;P2;SDS_P1;SDS_P2;PMS_P1;PMS_P2;Temp;Humidity;BMP_temperature;BMP_pressure;BME280_temperature;BME280_humidity;BME280_pressure;Samples;Min_cycle;Max_cycle;Signal;HPM_P1;HPM_P2
2022/05/01 00:01:45;;;;;;;24.73;10.07;;;;;;;;;;5030374;28;20005;-68
2022/05/01 00:04:11;;;;;;;17.75;10.18;;;;;;;;;;5030459;28;20497;-69
2022/05/01 00:06:36;;;;;;;17.85;9.52;;;;;;;;;;5031650;28;20385;-68
2022/05/01 00:09:02;;;;;;;24.73;11.32;;;;;;;;;;5029252;28;20028;-68
2022/05/01 00:11:28;;;;;;;18.23;10.23;;;;;;;;;;5035343;28;20543;-69
2022/05/01 00:13:54;;;;;;;19.13;10.02;;;;;;;;;;5030382;28;20096;-71
2022/05/01 00:16:19;;;;;;;17.38;8.80;;;;;;;;;;5032567;28;20013;-71
2022/05/01 00:18:44;;;;;;;20.13;10.43;;;;;;;;;;5031720;28;20021;-68
2022/05/01 00:21:10;;;;;;;16.95;9.73;;;;;;;;;;5032303;28;20387;-68
2022/05/01 00:23:35;;;;;;;28.38;11.27;;;;;;;;;;5028646;28;20032;-69
2022/05/01 00:26:03;;;;;;;17.27;9.40;;;;;;;;;;5014024;28;20488;-69
2022/05/01 00:28:29;;;;;;;17.15;9.15;;;;;;;;;;5030041;28;20083;-70
2022/05/01 00:30:56;;;;;;;18.17;8.77;;;;;;;;;;5028793;28;20041;-69
2022/05/01 00:38:49;;;;;;;21.38;10.73;;;;;;;;;;5027179;28;20091;-69
2022/05/01 00:41:14;;;;;;;20.57;10.13;;;;;;;;;;5030503;28;20441;-69
2022/05/01 00:44:03;;;;;;;20.70;10.43;;;;;;;;;;5023707;28;20355;-69
2022/05/01 00:46:28;;;;;;;18.20;9.88;;;;;;;;;;5023770;28;20047;-69
2022/05/01 00:48:53;;;;;;;21.27;11.02;;;;;;;;;;5023630;28;20013;-70
2022/05/01 00:51:20;;;;;;;22.02;10.52;;;;;;;;;;5029089;28;20667;-69
2022/05/01 00:53:45;;;;;;;18.90;10.18;;;;;;;;;;5030039;28;20037;-69
2022/05/01 00:56:12;;;;;;;24.35;10.77;;;;;;;;;;5030297;28;20382;-69
2022/05/01 00:58:37;;;;;;;16.05;9.85;;;;;;;;;;5029804;28;20029;-69
2022/05/01 01:01:03;;;;;;;16.77;9.52;;;;;;;;;;5029377;28;20022;-71
2022/05/01 01:03:28;;;;;;;22.75;10.57;;;;;;;;;;5028228;28;20392;-68
2022/05/01 01:05:54;;;;;;;22.50;11.13;;;;;;;;;;5028427;28;20032;-72
2022/05/01 01:08:19;;;;;;;21.15;10.75;;;;;;;;;;5026365;28;20025;-71
2022/05/01 01:10:44;;;;;;;20.38;9.98;;;;;;;;;;5023861;28;20029;-69
2022/05/01 01:13:10;;;;;;;21.17;10.68;;;;;;;;;;5027919;28;20379;-68
2022/05/01 01:15:35;;;;;;;20.10;9.88;;;;;;;;;;5023459;28;20025;-70
2022/05/01 01:18:01;;;;;;;18.65;9.02;;;;;;;;;;5024818;28;20672;-69
2022/05/01 01:20:27;;;;;;;19.38;9.70;;;;;;;;;;5030333;28;20052;-69
2022/05/01 01:22:55;;;;;;;14.52;9.15;;;;;;;;;;5029714;28;20560;-68
2022/05/01 01:25:22;;;;;;;17.52;9.75;;;;;;;;;;5027212;28;20027;-69
2022/05/01 01:27:47;;;;;;;19.73;10.52;;;;;;;;;;5029789;28;20641;-68
2022/05/01 01:32:57;;;;;;;18.55;9.90;;;;;;;;;;5026716;28;20032;-70
2022/05/01 01:35:23;;;;;;;21.85;10.73;;;;;;;;;;5030036;28;20401;-68
2022/05/01 01:37:58;;;;;;;17.45;9.10;;;;;;;;;;5024953;28;20017;-69
2022/05/01 01:40:24;;;;;;;16.60;9.57;;;;;;;;;;5011395;28;20359;-68
2022/05/01 01:42:50;;;;;;;20.27;9.68;;;;;;;;;;5028107;28;20037;-68
2022/05/01 01:45:15;;;;;;;19.00;9.93;;;;;;;;;;5022335;28;21813;-69
2022/05/01 01:47:42;;;;;;;16.45;8.80;;;;;;;;;;5020588;28;20460;-69
2022/05/01 01:50:09;;;;;;;17.55;9.82;;;;;;;;;;5026108;28;20045;-69
2022/05/01 01:52:34;;;;;;;19.92;10.27;;;;;;;;;;5029390;28;20108;-71
2022/05/01 01:55:00;;;;;;;18.30;9.82;;;;;;;;;;5028475;28;20446;-69
2022/05/01 01:57:25;;;;;;;19.67;10.30;;;;;;;;;;5027086;28;20021;-69
2022/05/01 01:59:51;;;;;;;19.05;10.10;;;;;;;;;;5026501;28;20477;-69
2022/05/01 02:02:16;;;;;;;22.15;10.23;;;;;;;;;;5024471;28;20044;-69
2022/05/01 02:04:41;;;;;;;19.23;10.97;;;;;;;;;;5027076;28;20100;-69
2022/05/01 02:07:06;;;;;;;22.65;10.63;;;;;;;;;;5007477;28;20286;-68
2022/05/01 02:09:32;;;;;;;19.48;10.05;;;;;;;;;;5029299;28;20470;-69
2022/05/01 02:11:57;;;;;;;24.77;11.00;;;;;;;;;;5024174;28;20037;-70
2022/05/01 02:14:23;;;;;;;17.85;9.85;;;;;;;;;;5025053;28;20100;-68
2022/05/01 02:16:48;;;;;;;20.00;10.60;;;;;;;;;;5021401;28;20037;-70
2022/05/01 02:19:14;;;;;;;20.50;10.90;;;;;;;;;;5021346;28;20575;-69
2022/05/01 02:21:40;;;;;;;15.77;9.57;;;;;;;;;;5025171;28;20017;-69
2022/05/01 02:24:09;;;;;;;22.70;10.77;;;;;;;;;;5025065;28;20139;-69
2022/05/01 02:26:37;;;;;;;26.10;10.48;;;;;;;;;;5026727;28;20024;-69
2022/05/01 02:29:03;;;;;;;23.08;11.18;;;;;;;;;;5026603;28;20428;-69
2022/05/01 02:31:28;;;;;;;25.48;11.13;;;;;;;;;;5026897;28;20025;-68
2022/05/01 02:33:54;;;;;;;23.00;11.57;;;;;;;;;;5025383;28;20052;-69
2022/05/01 02:36:20;;;;;;;22.65;11.32;;;;;;;;;;5027128;28;20056;-70
2022/05/01 02:38:47;;;;;;;24.20;11.07;;;;;;;;;;5025806;28;20021;-72
2022/05/01 02:41:13;;;;;;;24.40;12.43;;;;;;;;;;5027561;28;20020;-70
2022/05/01 02:43:38;;;;;;;23.15;11.07;;;;;;;;;;5027551;28;20014;-70
2022/05/01 02:46:03;;;;;;;25.88;11.20;;;;;;;;;;5024282;28;20033;-69
2022/05/01 02:48:28;;;;;;;21.77;11.48;;;;;;;;;;5020114;28;20075;-68
2022/05/01 02:50:54;;;;;;;22.38;12.13;;;;;;;;;;5022582;28;20033;-68
2022/05/01 02:53:19;;;;;;;24.92;11.63;;;;;;;;;;5028924;28;20022;-69
2022/05/01 02:55:44;;;;;;;21.80;11.48;;;;;;;;;;5023289;28;20040;-68
2022/05/01 02:58:09;;;;;;;22.85;11.25;;;;;;;;;;5026104;28;20148;-69
2022/05/01 03:00:34;;;;;;;22.90;10.60;;;;;;;;;;5027935;28;20025;-69
2022/05/01 03:03:00;;;;;;;23.35;11.70;;;;;;;;;;5023621;28;20037;-69
2022/05/01 03:05:25;;;;;;;18.60;10.57;;;;;;;;;;5025500;28;20072;-71
2022/05/01 03:07:51;;;;;;;22.90;11.20;;;;;;;;;;5025418;28;20087;-71
2022/05/01 03:10:16;;;;;;;16.00;9.90;;;;;;;;;;5024725;28;20021;-69
2022/05/01 03:12:41;;;;;;;20.90;11.10;;;;;;;;;;5028949;28;20029;-69
2022/05/01 03:15:07;;;;;;;19.75;10.82;;;;;;;;;;5027823;28;20031;-68
2022/05/01 03:23:00;;;;;;;20.92;10.57;;;;;;;;;;5031513;28;20040;-69
2022/05/01 03:25:25;;;;;;;18.55;11.13;;;;;;;;;;5017063;28;20025;-69
2022/05/01 03:27:50;;;;;;;22.77;9.93;;;;;;;;;;5031526;28;20059;-68
2022/05/01 03:30:16;;;;;;;25.10;11.68;;;;;;;;;;5029447;28;20057;-70
2022/05/01 03:32:43;;;;;;;22.67;10.82;;;;;;;;;;5032370;28;20508;-68
2022/05/01 03:35:08;;;;;;;24.02;11.13;;;;;;;;;;5030392;28;20109;-71
2022/05/01 03:37:33;;;;;;;24.00;11.63;;;;;;;;;;5031253;28;20112;-68
2022/05/01 03:39:59;;;;;;;21.20;11.02;;;;;;;;;;5031421;28;20025;-69
2022/05/01 03:42:24;;;;;;;20.80;11.60;;;;;;;;;;5029501;28;20029;-68
2022/05/01 03:44:49;;;;;;;25.77;11.45;;;;;;;;;;5030201;28;20693;-68
2022/05/01 03:47:14;;;;;;;28.60;11.35;;;;;;;;;;5027713;28;20037;-68
2022/05/01 03:49:40;;;;;;;22.93;11.27;;;;;;;;;;5023019;28;20028;-71
2022/05/01 03:52:06;;;;;;;23.27;11.02;;;;;;;;;;5024100;28;20834;-70
2022/05/01 03:54:31;;;;;;;20.05;11.05;;;;;;;;;;5030952;28;20104;-70
2022/05/01 03:56:56;;;;;;;25.83;11.57;;;;;;;;;;5027761;28;20378;-69
2022/05/01 03:59:21;;;;;;;20.23;11.97;;;;;;;;;;5030790;28;20068;-70
2022/05/01 04:01:46;;;;;;;26.80;12.05;;;;;;;;;;5028665;28;20268;-72
2022/05/01 04:04:11;;;;;;;24.77;11.53;;;;;;;;;;5027924;28;20093;-72
2022/05/01 04:06:37;;;;;;;19.92;10.63;;;;;;;;;;5030413;28;20326;-69
2022/05/01 04:09:02;;;;;;;25.58;13.65;;;;;;;;;;5016333;28;20045;-72
2022/05/01 04:11:27;;;;;;;26.67;13.40;;;;;;;;;;5026787;28;20068;-72
2022/05/01 04:13:52;;;;;;;21.73;11.68;;;;;;;;;;5028065;28;20045;-72
2022/05/01 04:16:18;;;;;;;23.45;12.20;;;;;;;;;;5028534;28;20057;-71
2022/05/01 04:18:43;;;;;;;22.25;11.70;;;;;;;;;;5030049;28;20482;-71
2022/05/01 04:21:09;;;;;;;22.75;11.45;;;;;;;;;;5026323;28;20107;-72
2022/05/01 04:23:34;;;;;;;21.38;10.85;;;;;;;;;;5023728;28;20071;-72
2022/05/01 04:25:59;;;;;;;21.77;11.27;;;;;;;;;;5028923;28;20522;-72
2022/05/01 04:28:25;;;;;;;22.55;10.52;;;;;;;;;;5030364;28;20272;-72
2022/05/01 04:30:51;;;;;;;24.08;12.43;;;;;;;;;;5031363;28;20347;-71
2022/05/01 04:33:17;;;;;;;23.27;12.00;;;;;;;;;;5029301;28;20018;-72
2022/05/01 04:35:45;;;;;;;30.17;12.38;;;;;;;;;;5030112;28;20075;-71
2022/05/01 04:38:11;;;;;;;24.80;11.57;;;;;;;;;;5029501;28;20421;-72
2022/05/01 04:40:51;;;;;;;29.38;13.10;;;;;;;;;;5027261;28;20033;-70
2022/05/01 04:43:20;;;;;;;23.63;11.70;;;;;;;;;;5030514;28;20402;-72
2022/05/01 04:45:49;;;;;;;23.33;12.85;;;;;;;;;;5027044;28;20057;-72
2022/05/01 04:48:15;;;;;;;22.33;10.43;;;;;;;;;;5028217;28;20025;-72
2022/05/01 04:50:40;;;;;;;31.48;12.48;;;;;;;;;;5029100;28;20013;-72
2022/05/01 04:53:09;;;;;;;27.10;12.23;;;;;;;;;;5011870;28;20112;-72
2022/05/01 04:55:35;;;;;;;23.90;11.93;;;;;;;;;;5013790;28;20662;-72
2022/05/01 04:58:00;;;;;;;24.05;11.30;;;;;;;;;;5028176;28;20021;-72
2022/05/01 05:00:26;;;;;;;22.33;12.18;;;;;;;;;;5030802;28;20021;-72
2022/05/01 05:02:52;;;;;;;27.08;12.20;;;;;;;;;;5024086;28;20028;-72
2022/05/01 05:05:18;;;;;;;21.30;11.35;;;;;;;;;;5029106;28;20029;-72
2022/05/01 05:07:44;;;;;;;27.92;13.23;;;;;;;;;;5025082;28;20025;-71
2022/05/01 05:10:10;;;;;;;22.30;11.80;;;;;;;;;;5027282;28;20021;-70
2022/05/01 05:12:36;;;;;;;24.77;13.05;;;;;;;;;;5027464;28;20028;-72
2022/05/01 05:15:02;;;;;;;28.92;12.73;;;;;;;;;;5026033;28;20298;-72
2022/05/01 05:17:29;;;;;;;27.13;13.02;;;;;;;;;;5024043;28;20087;-69
2022/05/01 05:19:54;;;;;;;23.80;11.52;;;;;;;;;;5026314;28;20066;-69
2022/05/01 05:22:20;;;;;;;22.85;12.65;;;;;;;;;;5006828;28;20474;-70
2022/05/01 05:24:45;;;;;;;24.15;13.13;;;;;;;;;;5021011;28;20470;-69
2022/05/01 05:27:11;;;;;;;22.38;12.18;;;;;;;;;;5023675;28;20050;-69
2022/05/01 05:29:36;;;;;;;20.83;11.50;;;;;;;;;;5022644;28;20029;-70
2022/05/01 05:32:01;;;;;;;27.02;12.57;;;;;;;;;;5023046;28;20132;-69
2022/05/01 05:34:27;;;;;;;24.88;11.52;;;;;;;;;;5028138;28;20494;-69
2022/05/01 05:36:52;;;;;;;21.40;12.43;;;;;;;;;;5028709;28;20017;-69
2022/05/01 05:39:17;;;;;;;23.65;11.82;;;;;;;;;;5023551;28;20017;-68
2022/05/01 05:41:42;;;;;;;25.00;11.52;;;;;;;;;;5027582;28;20053;-70
2022/05/01 05:44:08;;;;;;;23.45;11.27;;;;;;;;;;5024971;28;20238;-70
2022/05/01 05:46:33;;;;;;;22.08;11.95;;;;;;;;;;5029094;28;20057;-70
2022/05/01 05:48:58;;;;;;;24.35;12.27;;;;;;;;;;5026583;28;20478;-71
2022/05/01 05:51:23;;;;;;;27.75;14.52;;;;;;;;;;5030289;28;20036;-69
2022/05/01 05:53:49;;;;;;;26.00;13.23;;;;;;;;;;5027658;28;20021;-69
2022/05/01 05:56:15;;;;;;;27.05;12.05;;;;;;;;;;5029808;28;20029;-69
2022/05/01 05:58:40;;;;;;;24.33;11.75;;;;;;;;;;5024027;28;20544;-70
2022/05/01 06:01:05;;;;;;;23.98;12.93;;;;;;;;;;5029149;28;20044;-71
2022/05/01 06:03:31;;;;;;;22.48;12.55;;;;;;;;;;5028610;28;20575;-68
2022/05/01 06:05:56;;;;;;;22.00;12.48;;;;;;;;;;5029758;28;20017;-69
2022/05/01 06:08:21;;;;;;;31.63;12.20;;;;;;;;;;5024961;28;20029;-69
2022/05/01 06:10:47;;;;;;;20.55;11.38;;;;;;;;;;5026545;28;21068;-68
2022/05/01 06:13:12;;;;;;;26.58;12.43;;;;;;;;;;5027837;28;20079;-70
2022/05/01 06:15:38;;;;;;;25.27;12.07;;;;;;;;;;5026415;28;20024;-68
2022/05/01 06:18:03;;;;;;;24.23;11.20;;;;;;;;;;5028443;28;20279;-68
2022/05/01 06:20:28;;;;;;;27.67;12.80;;;;;;;;;;5028406;28;20013;-70
2022/05/01 06:22:53;;;;;;;30.98;13.50;;;;;;;;;;5028838;28;20470;-68
2022/05/01 06:25:19;;;;;;;31.30;13.50;;;;;;;;;;5028085;28;20378;-71
2022/05/01 06:27:44;;;;;;;25.55;11.55;;;;;;;;;;5027748;28;20021;-69
2022/05/01 06:30:12;;;;;;;23.40;12.82;;;;;;;;;;5029125;28;20029;-69
2022/05/01 06:32:41;;;;;;;23.48;13.07;;;;;;;;;;5028480;28;20398;-69
2022/05/01 06:35:07;;;;;;;28.20;12.75;;;;;;;;;;5025780;28;20033;-69
2022/05/01 06:37:36;;;;;;;33.85;15.15;;;;;;;;;;5028562;28;20477;-69
2022/05/01 06:40:03;;;;;;;31.20;14.10;;;;;;;;;;5027713;28;20029;-68
2022/05/01 06:42:29;;;;;;;28.73;14.15;;;;;;;;;;5027544;28;20106;-68
2022/05/01 06:44:54;;;;;;;24.92;13.70;;;;;;;;;;5028269;28;20473;-68
2022/05/01 06:47:19;;;;;;;22.15;12.73;;;;;;;;;;5026645;28;20028;-68
2022/05/01 06:49:44;;;;;;;33.03;13.87;;;;;;;;;;5028715;28;20469;-68
2022/05/01 06:52:09;;;;;;;29.20;14.03;;;;;;;;;;5026421;28;20363;-69
2022/05/01 06:54:35;;;;;;;24.33;12.70;;;;;;;;;;5027936;28;20264;-70
2022/05/01 06:57:00;;;;;;;28.80;12.82;;;;;;;;;;5027418;28;20093;-69
2022/05/01 06:59:25;;;;;;;25.52;13.27;;;;;;;;;;5028159;28;20025;-68
2022/05/01 07:01:50;;;;;;;28.70;12.40;;;;;;;;;;5027250;28;20057;-68
2022/05/01 07:04:15;;;;;;;30.00;14.88;;;;;;;;;;5027639;28;20752;-68
2022/05/01 07:06:41;;;;;;;28.33;12.38;;;;;;;;;;5027893;28;20221;-68
2022/05/01 07:09:06;;;;;;;22.83;13.43;;;;;;;;;;5026069;28;20032;-70
2022/05/01 07:11:31;;;;;;;21.92;12.60;;;;;;;;;;5024266;28;20044;-68
2022/05/01 07:13:57;;;;;;;25.50;13.93;;;;;;;;;;5023310;28;20500;-69
2022/05/01 07:16:22;;;;;;;24.73;13.50;;;;;;;;;;5027599;28;20096;-70
2022/05/01 07:18:47;;;;;;;23.90;14.15;;;;;;;;;;5026467;28;20372;-68
2022/05/01 07:21:13;;;;;;;21.65;13.10;;;;;;;;;;5028499;28;20025;-69
2022/05/01 07:23:38;;;;;;;21.43;13.40;;;;;;;;;;5028625;28;20045;-68
2022/05/01 07:26:03;;;;;;;27.02;13.77;;;;;;;;;;5026244;28;20822;-69
2022/05/01 07:28:28;;;;;;;25.23;13.73;;;;;;;;;;5028289;28;20033;-69
2022/05/01 07:30:53;;;;;;;25.27;13.13;;;;;;;;;;5027345;28;20303;-69
2022/05/01 07:33:18;;;;;;;25.70;13.83;;;;;;;;;;5028671;28;20272;-71
2022/05/01 07:35:44;;;;;;;25.63;13.05;;;;;;;;;;5027961;28;20747;-69
2022/05/01 07:38:09;;;;;;;24.00;13.32;;;;;;;;;;5028108;28;20490;-70
2022/05/01 07:40:34;;;;;;;20.20;12.03;;;;;;;;;;5026436;28;20025;-69
2022/05/01 07:42:59;;;;;;;17.92;12.18;;;;;;;;;;5016472;28;20275;-69
2022/05/01 07:45:24;;;;;;;17.03;11.20;;;;;;;;;;5027673;28;20021;-71
2022/05/01 07:47:50;;;;;;;17.25;11.13;;;;;;;;;;5027850;28;20346;-70
2022/05/01 07:50:17;;;;;;;14.45;10.98;;;;;;;;;;5026204;28;20032;-74
2022/05/01 07:52:42;;;;;;;15.95;10.68;;;;;;;;;;5028029;28;20018;-71
2022/05/01 07:55:07;;;;;;;17.13;11.65;;;;;;;;;;5027332;28;20017;-73
2022/05/01 07:57:33;;;;;;;16.77;11.20;;;;;;;;;;5029449;28;20021;-71
2022/05/01 07:59:58;;;;;;;16.57;11.70;;;;;;;;;;5032728;28;20014;-72
2022/05/01 08:02:23;;;;;;;18.00;10.98;;;;;;;;;;5030319;28;20288;-71
2022/05/01 08:04:48;;;;;;;15.48;11.52;;;;;;;;;;5030547;28;20033;-71
2022/05/01 08:07:15;;;;;;;18.98;11.35;;;;;;;;;;5030192;28;20029;-72
2022/05/01 08:09:40;;;;;;;15.50;11.40;;;;;;;;;;5023909;28;20056;-72
2022/05/01 08:12:06;;;;;;;18.33;11.18;;;;;;;;;;5029419;28;20080;-71
2022/05/01 08:14:31;;;;;;;17.50;11.88;;;;;;;;;;5029619;28;20447;-73
2022/05/01 08:16:56;;;;;;;18.45;10.63;;;;;;;;;;5026118;28;20084;-72
2022/05/01 08:22:05;;;;;;;26.15;11.90;;;;;;;;;;5028132;28;20326;-69
2022/05/01 08:24:31;;;;;;;18.83;11.63;;;;;;;;;;5027655;28;20029;-70
2022/05/01 08:26:56;;;;;;;19.38;12.82;;;;;;;;;;5026989;28;20018;-71
2022/05/01 08:29:22;;;;;;;22.58;13.18;;;;;;;;;;5027874;28;20032;-70
2022/05/01 08:31:47;;;;;;;19.58;12.18;;;;;;;;;;5028613;28;20041;-70
2022/05/01 08:34:13;;;;;;;21.33;12.63;;;;;;;;;;5026815;28;20024;-72
2022/05/01 08:36:38;;;;;;;21.10;11.82;;;;;;;;;;5013014;28;20026;-70
2022/05/01 08:39:04;;;;;;;22.80;12.20;;;;;;;;;;5024661;28;20021;-69
2022/05/01 08:41:30;;;;;;;20.05;12.85;;;;;;;;;;5028166;28;20032;-72
2022/05/01 08:44:00;;;;;;;18.73;12.00;;;;;;;;;;5021425;28;20121;-72
2022/05/01 08:46:28;;;;;;;20.17;12.10;;;;;;;;;;5006074;28;20124;-71
2022/05/01 08:49:05;;;;;;;23.83;11.73;;;;;;;;;;5027961;28;20034;-73
2022/05/01 08:51:34;;;;;;;18.65;10.95;;;;;;;;;;5023820;28;20033;-70
2022/05/01 08:54:02;;;;;;;14.70;10.35;;;;;;;;;;5013485;28;20018;-71
2022/05/01 08:56:27;;;;;;;19.27;11.52;;;;;;;;;;5030221;28;20465;-70
2022/05/01 08:58:53;;;;;;;21.58;10.55;;;;;;;;;;5027380;28;20033;-70
2022/05/01 09:01:18;;;;;;;20.17;10.70;;;;;;;;;;5024878;28;20029;-71
2022/05/01 09:03:44;;;;;;;13.98;9.38;;;;;;;;;;5026982;28;20508;-70
2022/05/01 09:06:09;;;;;;;16.13;8.98;;;;;;;;;;5025966;28;20113;-70
2022/05/01 09:08:36;;;;;;;21.92;9.38;;;;;;;;;;5025590;28;20068;-71
2022/05/01 09:12:49;;;;;;;18.83;10.00;;;;;;;;;;5015531;28;20444;-71
2022/05/01 09:13:47;;;;;;;15.82;9.35;;;;;;;;;;5027208;28;20734;-70
2022/05/01 09:16:12;;;;;;;18.50;9.43;;;;;;;;;;5027521;28;20028;-71
2022/05/01 09:18:45;;;;;;;15.38;8.38;;;;;;;;;;5021974;28;20080;-70
2022/05/01 09:21:10;;;;;;;11.38;7.63;;;;;;;;;;5024729;28;20486;-70
2022/05/01 09:23:43;;;;;;;13.98;8.25;;;;;;;;;;5026549;28;20021;-72
2022/05/01 09:26:09;;;;;;;14.30;8.35;;;;;;;;;;5027091;28;20100;-73
2022/05/01 09:28:34;;;;;;;16.63;8.95;;;;;;;;;;5026531;28;20216;-71
2022/05/01 09:30:59;;;;;;;16.15;8.15;;;;;;;;;;5026368;28;20541;-70
2022/05/01 09:33:25;;;;;;;15.02;8.00;;;;;;;;;;5023257;28;20028;-70
2022/05/01 09:35:50;;;;;;;10.77;7.13;;;;;;;;;;5028773;28;20488;-72
2022/05/01 09:38:26;;;;;;;11.07;7.82;;;;;;;;;;5025812;28;20032;-71
2022/05/01 09:40:56;;;;;;;12.18;7.65;;;;;;;;;;5025740;28;20494;-72
2022/05/01 09:43:41;;;;;;;19.13;10.25;;;;;;;;;;5023103;28;20030;-70
2022/05/01 09:46:09;;;;;;;21.30;9.82;;;;;;;;;;5028237;28;20013;-72
2022/05/01 09:48:34;;;;;;;20.35;9.68;;;;;;;;;;5023362;28;20681;-69
2022/05/01 09:51:12;;;;;;;11.23;6.97;;;;;;;;;;5027767;28;20029;-70
2022/05/01 09:53:42;;;;;;;10.20;5.40;;;;;;;;;;5025854;28;20283;-69
2022/05/01 09:56:07;;;;;;;11.50;6.45;;;;;;;;;;5027606;28;20104;-68
2022/05/01 09:58:33;;;;;;;12.27;6.20;;;;;;;;;;5024811;28;20680;-70
2022/05/01 10:01:06;;;;;;;14.27;6.47;;;;;;;;;;5028563;28;20252;-70
2022/05/01 10:03:32;;;;;;;13.68;6.72;;;;;;;;;;5022085;28;20036;-69
2022/05/01 10:05:58;;;;;;;13.82;6.65;;;;;;;;;;5026303;28;20072;-69
2022/05/01 10:08:24;;;;;;;13.48;6.75;;;;;;;;;;5023940;28;20084;-69
2022/05/01 10:10:54;;;;;;;18.45;7.25;;;;;;;;;;5024156;28;20017;-71
2022/05/01 10:13:22;;;;;;;13.32;6.60;;;;;;;;;;5007405;28;20024;-69
2022/05/01 10:15:48;;;;;;;10.85;6.53;;;;;;;;;;5027681;28;20025;-70
2022/05/01 10:18:13;;;;;;;13.85;6.80;;;;;;;;;;5023639;28;20378;-69
2022/05/01 10:20:39;;;;;;;14.75;6.57;;;;;;;;;;5027252;28;20033;-70
2022/05/01 10:23:05;;;;;;;11.07;6.35;;;;;;;;;;5025847;28;20048;-72
2022/05/01 10:25:33;;;;;;;17.88;7.30;;;;;;;;;;5009204;28;20613;-69
2022/05/01 10:28:05;;;;;;;11.43;6.13;;;;;;;;;;5023254;28;20036;-69
2022/05/01 10:33:28;;;;;;;18.95;7.13;;;;;;;;;;5029247;28;20171;-68
2022/05/01 10:36:12;;;;;;;12.70;6.75;;;;;;;;;;5022367;28;20009;-72
2022/05/01 10:39:01;;;;;;;17.35;6.68;;;;;;;;;;5024721;28;20079;-72
2022/05/01 10:41:27;;;;;;;19.42;6.13;;;;;;;;;;5027811;28;20021;-69
2022/05/01 10:43:53;;;;;;;12.80;6.55;;;;;;;;;;5023790;28;20044;-70
2022/05/01 10:46:18;;;;;;;10.32;6.85;;;;;;;;;;5027374;28;20029;-70
2022/05/01 10:48:43;;;;;;;17.10;6.28;;;;;;;;;;5025915;28;20095;-73
2022/05/01 10:51:27;;;;;;;13.48;7.88;;;;;;;;;;5028241;28;20064;-73
2022/05/01 10:54:11;;;;;;;11.77;7.32;;;;;;;;;;5008380;28;20049;-72
2022/05/01 10:56:37;;;;;;;10.50;6.72;;;;;;;;;;5027340;28;20076;-71
2022/05/01 10:59:21;;;;;;;19.05;7.20;;;;;;;;;;5027416;28;20022;-70
2022/05/01 11:01:52;;;;;;;16.15;6.72;;;;;;;;;;5024916;28;20449;-73
2022/05/01 11:04:19;;;;;;;13.48;7.07;;;;;;;;;;5027552;28;20025;-73
2022/05/01 11:06:45;;;;;;;12.63;6.80;;;;;;;;;;5026721;28;20109;-73
2022/05/01 11:09:14;;;;;;;9.63;6.38;;;;;;;;;;5027044;28;20096;-73
2022/05/01 11:11:39;;;;;;;14.15;5.70;;;;;;;;;;5026889;28;20044;-71
2022/05/01 11:14:04;;;;;;;18.30;7.00;;;;;;;;;;5027209;28;20021;-70
2022/05/01 11:16:48;;;;;;;13.73;6.73;;;;;;;;;;5025408;28;20987;-71
2022/05/01 11:19:13;;;;;;;10.48;6.55;;;;;;;;;;5019152;28;20366;-70
2022/05/01 11:21:39;;;;;;;14.90;6.80;;;;;;;;;;5019247;28;20112;-70
2022/05/01 11:24:05;;;;;;;12.88;6.97;;;;;;;;;;5022413;28;20466;-70
2022/05/01 11:26:30;;;;;;;11.43;6.95;;;;;;;;;;5026285;28;20095;-71
2022/05/01 11:28:55;;;;;;;10.65;6.88;;;;;;;;;;5025966;28;20494;-73
2022/05/01 11:31:36;;;;;;;18.88;6.80;;;;;;;;;;5027814;28;20053;-71
2022/05/01 11:34:01;;;;;;;;;;;;;;;;;;5031248;28;20016;-71
2022/05/01 11:36:45;;;;;;;13.65;7.13;;;;;;;;;;5029858;28;19917;-71
2022/05/01 11:39:10;;;;;;;12.25;6.60;;;;;;;;;;5029547;28;20471;-74
2022/05/01 11:41:39;;;;;;;9.10;6.47;;;;;;;;;;5025614;28;20052;-71
2022/05/01 11:44:23;;;;;;;15.93;6.80;;;;;;;;;;5029408;28;20279;-73
2022/05/01 11:46:49;;;;;;;12.27;6.25;;;;;;;;;;5023196;28;20168;-71
2022/05/01 11:49:14;;;;;;;10.45;6.38;;;;;;;;;;5031743;28;20156;-70
2022/05/01 11:51:39;;;;;;;10.13;6.22;;;;;;;;;;5029940;28;20021;-71
2022/05/01 11:54:05;;;;;;;13.27;6.93;;;;;;;;;;5031008;28;20358;-71
2022/05/01 12:04:44;;;;;;;10.15;6.57;;;;;;;;;;5030636;28;20036;-72
2022/05/01 12:07:12;;;;;;;12.07;6.60;;;;;;;;;;5027663;28;21772;-71
2022/05/01 12:09:38;;;;;;;11.57;6.40;;;;;;;;;;5028798;28;20035;-72
2022/05/01 12:12:04;;;;;;;11.93;5.95;;;;;;;;;;5012157;28;20385;-71
2022/05/01 12:14:29;;;;;;;10.55;6.63;;;;;;;;;;5031276;28;20024;-75
2022/05/01 12:16:54;;;;;;;12.30;6.18;;;;;;;;;;5030147;28;20033;-71
2022/05/01 12:19:20;;;;;;;12.47;7.43;;;;;;;;;;5031299;28;20024;-73
2022/05/01 12:21:45;;;;;;;8.80;5.82;;;;;;;;;;5008263;28;20271;-74
2022/05/01 12:24:12;;;;;;;10.35;6.15;;;;;;;;;;5030899;28;20025;-71
2022/05/01 12:26:38;;;;;;;8.13;6.28;;;;;;;;;;5028060;28;20678;-71
2022/05/01 12:29:09;;;;;;;11.40;6.20;;;;;;;;;;5029769;28;20044;-72
2022/05/01 12:31:53;;;;;;;14.90;6.15;;;;;;;;;;5030079;28;20108;-71
2022/05/01 12:34:22;;;;;;;13.57;5.82;;;;;;;;;;5026987;28;20467;-71
2022/05/01 12:36:51;;;;;;;10.73;6.28;;;;;;;;;;5028791;28;20029;-72
2022/05/01 12:39:19;;;;;;;17.48;6.15;;;;;;;;;;5027827;28;20484;-72
2022/05/01 12:45:01;;;;;;;10.07;6.35;;;;;;;;;;5030683;28;20052;-71
2022/05/01 12:47:39;;;;;;;10.73;5.90;;;;;;;;;;5028471;28;20543;-70
2022/05/01 12:50:06;;;;;;;10.82;6.43;;;;;;;;;;5027630;28;20049;-70
2022/05/01 12:52:33;;;;;;;10.43;6.10;;;;;;;;;;5027528;28;20021;-70
2022/05/01 12:55:08;;;;;;;10.90;6.63;;;;;;;;;;5029646;28;20024;-70
2022/05/01 12:57:34;;;;;;;19.85;6.38;;;;;;;;;;5027081;28;20017;-70
2022/05/01 12:59:59;;;;;;;10.32;6.80;;;;;;;;;;5030209;28;20021;-70
2022/05/01 13:02:25;;;;;;;9.80;5.80;;;;;;;;;;5025134;28;20068;-70
2022/05/01 13:04:57;;;;;;;15.52;5.88;;;;;;;;;;5025995;28;20272;-70
2022/05/01 13:07:35;;;;;;;12.07;5.75;;;;;;;;;;5026168;28;20071;-70
2022/05/01 13:10:01;;;;;;;13.48;6.22;;;;;;;;;;5029432;28;20025;-70
2022/05/01 13:12:31;;;;;;;10.95;6.32;;;;;;;;;;5026500;28;20021;-69
2022/05/01 13:14:58;;;;;;;10.00;5.95;;;;;;;;;;5030513;28;20017;-70
2022/05/01 13:17:24;;;;;;;9.70;5.57;;;;;;;;;;5024753;28;20115;-71
2022/05/01 13:19:49;;;;;;;13.68;5.78;;;;;;;;;;5026866;28;20104;-70
2022/05/01 13:22:15;;;;;;;12.60;6.53;;;;;;;;;;5026860;28;20738;-70
2022/05/01 13:24:41;;;;;;;9.85;5.75;;;;;;;;;;5030319;28;20276;-72
2022/05/01 13:27:07;;;;;;;13.77;5.88;;;;;;;;;;5029452;28;20101;-72
2022/05/01 13:29:34;;;;;;;8.77;6.13;;;;;;;;;;5029403;28;20112;-70
2022/05/01 13:32:03;;;;;;;10.82;6.03;;;;;;;;;;5027099;28;20076;-71
2022/05/01 13:34:28;;;;;;;19.23;6.00;;;;;;;;;;5024216;28;20071;-74
2022/05/01 13:36:54;;;;;;;14.40;6.13;;;;;;;;;;5029638;28;20022;-72
2022/05/01 13:39:19;;;;;;;8.48;5.72;;;;;;;;;;5023647;28;20041;-70
2022/05/01 13:47:14;;;;;;;8.10;5.82;;;;;;;;;;5025955;28;20105;-71
2022/05/01 13:49:40;;;;;;;11.43;7.13;;;;;;;;;;5028372;28;20508;-73
2022/05/01 13:52:06;;;;;;;17.40;6.07;;;;;;;;;;5026425;28;20025;-70
2022/05/01 13:54:31;;;;;;;11.55;6.40;;;;;;;;;;5028871;28;20402;-71
2022/05/01 13:56:57;;;;;;;10.98;6.82;;;;;;;;;;5026763;28;20470;-74
2022/05/01 13:59:22;;;;;;;12.32;7.55;;;;;;;;;;5029541;28;20466;-70
2022/05/01 14:01:51;;;;;;;12.75;6.00;;;;;;;;;;5027157;28;20040;-71
2022/05/01 14:04:17;;;;;;;7.75;5.00;;;;;;;;;;5031195;28;20478;-70
2022/05/01 14:06:42;;;;;;;18.25;6.93;;;;;;;;;;5021103;28;20040;-70
2022/05/01 14:09:08;;;;;;;19.67;7.07;;;;;;;;;;5026461;28;20032;-72
2022/05/01 14:11:33;;;;;;;9.27;6.07;;;;;;;;;;5026839;28;20629;-70
2022/05/01 14:13:58;;;;;;;14.70;6.53;;;;;;;;;;5030334;28;20401;-70
2022/05/01 14:16:24;;;;;;;20.08;7.18;;;;;;;;;;5017373;28;20017;-73
2022/05/01 14:18:50;;;;;;;12.82;6.70;;;;;;;;;;5020772;28;20037;-74
2022/05/01 14:21:19;;;;;;;13.00;7.15;;;;;;;;;;5022712;28;20036;-72
2022/05/01 14:23:45;;;;;;;15.40;6.65;;;;;;;;;;5021960;28;20639;-71
2022/05/01 14:26:11;;;;;;;8.85;6.05;;;;;;;;;;5024633;28;20025;-71
2022/05/01 14:28:38;;;;;;;11.55;7.13;;;;;;;;;;5026577;28;20091;-73
2022/05/01 14:31:11;;;;;;;9.27;6.40;;;;;;;;;;5025949;28;20021;-70
2022/05/01 14:33:46;;;;;;;13.88;6.63;;;;;;;;;;5023769;28;20040;-71
2022/05/01 14:36:18;;;;;;;14.63;7.53;;;;;;;;;;5023926;28;20017;-71
2022/05/01 14:38:47;;;;;;;15.07;7.45;;;;;;;;;;5022845;28;20013;-71
2022/05/01 14:41:13;;;;;;;10.27;6.90;;;;;;;;;;5023078;28;20022;-71
2022/05/01 14:43:39;;;;;;;19.83;7.68;;;;;;;;;;5024056;28;20025;-73
2022/05/01 14:46:06;;;;;;;12.63;6.25;;;;;;;;;;5022050;28;20531;-72
2022/05/01 14:48:31;;;;;;;16.42;6.70;;;;;;;;;;5021613;28;20684;-70
2022/05/01 14:50:57;;;;;;;12.05;7.13;;;;;;;;;;5025345;28;20021;-70
2022/05/01 14:53:22;;;;;;;10.32;6.22;;;;;;;;;;5024733;28;20124;-71
2022/05/01 14:55:49;;;;;;;14.33;7.27;;;;;;;;;;5019217;28;20025;-70
2022/05/01 15:06:29;;;;;;;13.45;6.72;;;;;;;;;;5026322;28;20495;-70